createdAt,value
2023-01-04T00:01:22.897Z,102241.34
2023-01-04T00:03:50.465Z,102242.19
2023-01-04T00:06:19.149Z,102239.53
2023-01-04T00:08:46.833Z,102244.88
2023-01-04T00:11:20.643Z,102228.97
2023-01-04T00:13:51.260Z,102225.41
2023-01-04T00:16:21.401Z,102233.38
2023-01-04T00:18:49.886Z,102240.47
2023-01-04T00:21:20.599Z,102233.38
2023-01-04T00:23:50.276Z,102237.81
2023-01-04T00:26:20.246Z,102231.53
2023-01-04T00:28:53.948Z,102237.81
2023-01-04T00:31:23.353Z,102236.91
2023-01-04T00:33:56.206Z,102235.13
2023-01-04T00:36:24.716Z,102225.38
2023-01-04T00:39:08.024Z,102232.44
2023-01-04T00:42:00.085Z,102228.88
2023-01-04T00:44:29.109Z,102229.78
2023-01-04T00:46:57.049Z,102232.44
2023-01-04T00:49:25.167Z,102231.56
2023-01-04T00:51:52.835Z,102227.13
2023-01-04T00:54:21.364Z,102232.47
2023-01-04T00:56:48.952Z,102228.91
2023-01-04T00:59:18.928Z,102227.13
2023-01-04T01:01:47.100Z,102220.94
2023-01-04T01:04:17.413Z,102223.56
2023-01-04T01:06:45.045Z,102227.13
2023-01-04T01:09:13.052Z,102223.59
2023-01-04T01:11:41.128Z,102236.94
2023-01-04T01:14:12.528Z,102232.50
2023-01-04T01:16:57.742Z,102235.16
2023-01-04T01:19:28.007Z,102244.00
2023-01-04T01:21:58.089Z,102244.00
2023-01-04T01:24:26.640Z,102247.53
2023-01-04T01:26:54.963Z,102247.56
2023-01-04T01:29:22.630Z,102242.22
2023-01-04T01:31:50.218Z,102242.22
2023-01-04T01:34:17.743Z,102247.56
2023-01-04T01:36:45.249Z,102248.41
2023-01-04T01:39:12.850Z,102235.13
2023-01-04T01:41:40.246Z,102238.69
2023-01-04T01:44:42.803Z,102244.88
2023-01-04T01:47:14.938Z,102255.50
2023-01-04T01:49:44.637Z,102254.59
2023-01-04T01:52:17.568Z,102256.38
2023-01-04T01:54:51.726Z,102241.31
2023-01-04T01:57:24.411Z,102251.06
2023-01-04T01:59:56.282Z,102253.72
2023-01-04T02:02:24.037Z,102256.41
2023-01-04T02:04:55.625Z,102263.53
2023-01-04T02:07:26.626Z,102256.44
2023-01-04T02:09:55.814Z,102263.53
2023-01-04T02:12:23.345Z,102249.31
2023-01-04T02:14:51.569Z,102250.22
2023-01-04T02:17:30.902Z,102261.72
2023-01-04T02:20:25.746Z,102254.63
2023-01-04T02:23:29.776Z,102246.66
2023-01-04T02:26:29.212Z,102233.38
2023-01-04T02:29:24.618Z,102230.72
2023-01-04T02:31:57.377Z,102234.28
2023-01-04T02:34:58.297Z,102239.59
2023-01-04T02:37:50.284Z,102223.66
2023-01-04T02:40:28.329Z,102218.31
2023-01-04T02:43:32.839Z,102222.75
2023-01-04T02:46:08.505Z,102224.53
2023-01-04T02:48:59.132Z,102222.72
2023-01-04T02:51:35.662Z,102218.28
2023-01-04T02:54:15.443Z,102219.19
2023-01-04T02:57:05.858Z,102228.94
2023-01-04T03:00:08.247Z,102227.16
2023-01-04T03:03:06.342Z,102225.41
2023-01-04T03:06:14.056Z,102225.34
2023-01-04T03:08:50.406Z,102220.97
2023-01-04T03:11:37.389Z,102219.19
2023-01-04T03:14:30.960Z,102222.72
2023-01-04T03:17:04.739Z,102215.66
2023-01-04T03:19:53.833Z,102215.66
2023-01-04T03:22:55.967Z,102215.63
2023-01-04T03:25:48.966Z,102212.94
2023-01-04T03:28:37.775Z,102219.13
2023-01-04T03:31:33.525Z,102216.47
2023-01-04T03:34:19.852Z,102220.06
2023-01-04T03:37:08.703Z,102214.72
2023-01-04T03:40:00.685Z,102220.06
2023-01-04T03:43:04.672Z,102210.34
2023-01-04T03:46:03.027Z,102199.66
2023-01-04T03:49:00.866Z,102208.53
2023-01-04T03:51:36.650Z,102202.28
2023-01-04T03:54:09.806Z,102205.88
2023-01-04T03:56:41.927Z,102200.56
2023-01-04T03:59:10.341Z,102196.09
2023-01-04T04:01:39.175Z,102199.66
2023-01-04T04:04:25.179Z,102194.25
2023-01-04T04:07:11.121Z,102189.84
2023-01-04T04:09:38.473Z,102190.78
2023-01-04T04:12:06.024Z,102200.56
2023-01-04T04:14:33.483Z,102190.81
2023-01-04T04:17:01.147Z,102195.22
2023-01-04T04:19:28.761Z,102194.31
2023-01-04T04:21:56.337Z,102196.09
2023-01-04T04:24:42.192Z,102190.81
2023-01-04T04:27:09.801Z,102191.69
2023-01-04T04:29:37.173Z,102197.88
2023-01-04T04:32:04.785Z,102204.09
2023-01-04T04:34:32.320Z,102198.78
2023-01-04T04:36:59.618Z,102199.66
2023-01-04T04:39:27.011Z,102204.09
2023-01-04T04:41:54.411Z,102205.91
2023-01-04T04:44:21.802Z,102210.31
2023-01-04T04:46:49.994Z,102206.78
2023-01-04T04:49:18.455Z,102204.09
2023-01-04T04:51:46.841Z,102200.53
2023-01-04T04:54:20.553Z,102201.47
2023-01-04T04:56:49.372Z,102199.66
2023-01-04T04:59:17.114Z,102189.94
2023-01-04T05:01:44.734Z,102189.03
2023-01-04T05:04:17.059Z,102192.56
2023-01-04T05:06:45.183Z,102197.91
2023-01-04T05:09:13.965Z,102195.19
2023-01-04T05:12:00.630Z,102204.97
2023-01-04T05:14:27.966Z,102210.28
2023-01-04T05:16:55.478Z,102209.38
2023-01-04T05:19:22.949Z,102212.91
2023-01-04T05:21:50.417Z,102210.16
2023-01-04T05:24:17.882Z,102212.88
2023-01-04T05:26:45.253Z,102224.41
2023-01-04T05:29:32.672Z,102219.03
2023-01-04T05:32:00.247Z,102224.38
2023-01-04T05:34:27.734Z,102227.03
2023-01-04T05:36:55.193Z,102225.25
2023-01-04T05:39:22.568Z,102222.59
2023-01-04T05:42:08.565Z,102221.72
2023-01-04T05:44:36.018Z,102219.06
2023-01-04T05:47:03.445Z,102230.50
2023-01-04T05:49:30.850Z,102224.28
2023-01-04T05:51:58.216Z,102232.31
2023-01-04T05:54:25.624Z,102231.41
2023-01-04T05:56:53.001Z,102231.41
2023-01-04T05:59:20.411Z,102240.22
2023-01-04T06:01:47.989Z,102252.63
2023-01-04T06:04:15.637Z,102237.53
2023-01-04T06:06:43.250Z,102250.81
2023-01-04T06:09:10.657Z,102242.84
2023-01-04T06:11:38.090Z,102241.06
2023-01-04T06:14:05.627Z,102242.84
2023-01-04T06:16:33.285Z,102237.47
2023-01-04T06:19:01.397Z,102242.75
2023-01-04T06:21:28.890Z,102233.94
2023-01-04T06:23:56.475Z,102249.72
2023-01-04T06:26:23.960Z,102244.41
2023-01-04T06:28:51.406Z,102256.03
2023-01-04T06:31:18.932Z,102251.69
2023-01-04T06:33:46.403Z,102245.34
2023-01-04T06:36:19.209Z,102246.22
2023-01-04T06:38:48.287Z,102251.63
2023-01-04T06:41:15.944Z,102253.44
2023-01-04T06:43:43.360Z,102258.63
2023-01-04T06:46:11.065Z,102263.88
2023-01-04T06:48:38.564Z,102262.03
2023-01-04T06:51:06.112Z,102260.31
2023-01-04T06:53:33.582Z,102251.41
2023-01-04T06:56:01.135Z,102249.56
2023-01-04T06:58:29.114Z,102267.31
2023-01-04T07:00:56.599Z,102277.88
2023-01-04T07:03:24.164Z,102255.59
2023-01-04T07:05:52.192Z,102262.75
2023-01-04T07:08:20.116Z,102262.75
2023-01-04T07:10:47.611Z,102278.81
2023-01-04T07:13:15.418Z,102289.31
2023-01-04T07:15:43.388Z,102278.66
2023-01-04T07:18:11.211Z,102295.56
2023-01-04T07:20:38.980Z,102274.25
2023-01-04T07:23:07.826Z,102290.25
2023-01-04T07:25:35.743Z,102291.16
2023-01-04T07:28:03.321Z,102280.50
2023-01-04T07:30:30.921Z,102294.63
2023-01-04T07:32:58.469Z,102293.72
2023-01-04T07:35:26.599Z,102296.53
2023-01-04T07:37:58.292Z,102302.81
2023-01-04T07:40:27.911Z,102303.69
2023-01-04T07:42:57.562Z,102298.38
2023-01-04T07:45:25.708Z,102302.72
2023-01-04T07:47:53.125Z,102307.06
2023-01-04T07:50:20.513Z,102300.09
2023-01-04T07:52:48.058Z,102297.34
2023-01-04T07:55:15.550Z,102308.91
2023-01-04T07:57:42.954Z,102309.78
2023-01-04T08:00:11.563Z,102308.03
2023-01-04T08:02:41.987Z,102307.22
2023-01-04T08:05:09.561Z,102307.28
2023-01-04T08:07:37.072Z,102300.22
2023-01-04T08:10:04.991Z,102309.94
2023-01-04T08:12:32.522Z,102310.00
2023-01-04T08:14:59.955Z,102321.50
2023-01-04T08:17:27.426Z,102305.53
2023-01-04T08:19:54.814Z,102305.50
2023-01-04T08:22:22.323Z,102314.38
2023-01-04T08:24:49.743Z,102304.66
2023-01-04T08:27:17.246Z,102323.22
2023-01-04T08:29:44.785Z,102324.22
2023-01-04T08:32:12.193Z,102315.34
2023-01-04T08:34:39.791Z,102313.59
2023-01-04T08:37:07.151Z,102328.56
2023-01-04T08:39:36.198Z,102322.41
2023-01-04T08:42:17.800Z,102322.41
2023-01-04T08:44:48.073Z,102327.72
2023-01-04T08:47:15.704Z,102323.34
2023-01-04T08:49:43.199Z,102314.59
2023-01-04T08:52:11.776Z,102312.84
2023-01-04T08:54:39.146Z,102315.50
2023-01-04T08:57:06.659Z,102319.00
2023-01-04T08:59:34.115Z,102317.34
2023-01-04T09:02:05.663Z,102311.13
2023-01-04T09:04:33.820Z,102318.38
2023-01-04T09:07:01.241Z,102322.84
2023-01-04T09:09:30.257Z,102314.88
2023-01-04T09:11:59.743Z,102319.22
2023-01-04T09:14:27.445Z,102308.63
2023-01-04T09:16:54.835Z,102321.06
2023-01-04T09:19:22.770Z,102318.41
2023-01-04T09:21:50.576Z,102323.78
2023-01-04T09:24:18.150Z,102325.56
2023-01-04T09:26:47.415Z,102326.47
2023-01-04T09:29:14.793Z,102327.38
2023-01-04T09:31:42.270Z,102330.06
2023-01-04T09:34:14.759Z,102330.06
2023-01-04T09:36:45.011Z,102325.66
2023-01-04T09:39:20.822Z,102323.03
2023-01-04T09:41:59.218Z,102326.56
2023-01-04T09:45:12.047Z,102325.66
2023-01-04T09:47:33.213Z,102326.56
2023-01-04T09:50:06.904Z,102320.38
2023-01-04T09:52:43.361Z,102318.59
2023-01-04T09:55:38.882Z,102323.03
2023-01-04T09:58:31.339Z,102315.94
2023-01-04T10:01:25.305Z,102320.38
2023-01-04T10:03:55.858Z,102315.91
2023-01-04T10:06:23.253Z,102318.56
2023-01-04T10:08:50.634Z,102309.69
2023-01-04T10:11:33.374Z,102311.47
2023-01-04T10:14:18.968Z,102308.84
2023-01-04T10:22:53.122Z,102304.44
2023-01-04T10:25:52.832Z,102304.44
2023-01-04T10:28:40.571Z,102301.78
2023-01-04T10:31:41.016Z,102301.78
2023-01-04T10:34:26.400Z,102287.59
2023-01-04T10:37:10.314Z,102280.47
2023-01-04T10:39:38.022Z,102276.94
2023-01-04T10:42:17.197Z,102274.25
2023-01-04T10:44:51.924Z,102268.03
2023-01-04T10:47:32.663Z,102256.50
2023-01-04T10:50:11.509Z,102257.38
2023-01-04T10:53:11.720Z,102257.38
2023-01-04T10:56:24.011Z,102245.81
2023-01-04T10:58:53.323Z,102236.03
2023-01-04T11:01:33.450Z,102238.63
2023-01-04T11:04:23.944Z,102237.75
2023-01-04T11:07:02.795Z,102233.31
2023-01-04T11:09:52.516Z,102227.09
2023-01-04T11:12:22.721Z,102233.31
2023-01-04T11:14:51.259Z,102219.91
2023-01-04T11:17:21.434Z,102228.81
2023-01-04T11:19:49.377Z,102216.38
2023-01-04T11:22:41.046Z,102220.78
2023-01-04T11:28:20.093Z,102212.78
2023-01-04T11:31:09.277Z,102210.09
2023-01-04T11:34:03.539Z,102210.94
2023-01-04T11:36:31.738Z,102200.25
2023-01-04T11:39:00.076Z,102195.75
2023-01-04T11:41:28.775Z,102185.00
2023-01-04T11:43:59.160Z,102188.44
2023-01-04T11:46:27.734Z,102184.94
2023-01-04T11:48:55.791Z,102178.66
2023-01-04T11:51:29.098Z,102175.94
2023-01-04T11:54:01.877Z,102177.69
2023-01-04T11:56:31.003Z,102174.06
2023-01-04T11:59:22.929Z,102172.13
2023-01-04T12:02:35.184Z,102173.97
2023-01-04T12:05:22.797Z,102175.75
2023-01-04T12:07:56.281Z,102164.19
2023-01-04T12:10:27.306Z,102161.44
2023-01-04T12:12:57.915Z,102164.19
2023-01-04T12:16:19.735Z,102149.06
2023-01-04T12:18:47.785Z,102150.66
2023-01-04T12:21:22.166Z,102139.00
2023-01-04T12:23:50.406Z,102146.03
2023-01-04T12:26:18.330Z,102136.34
2023-01-04T12:29:09.085Z,102139.81
2023-01-04T12:31:36.520Z,102132.00
2023-01-04T12:34:16.815Z,102133.84
2023-01-04T12:36:50.244Z,102122.16
2023-01-04T12:39:17.497Z,102113.94
2023-01-04T12:42:00.674Z,102114.84
2023-01-04T12:44:37.403Z,102106.97
2023-01-04T12:47:36.550Z,102102.63
2023-01-04T12:50:08.714Z,102108.72
2023-01-04T12:55:31.033Z,102095.56
2023-01-04T12:58:03.872Z,102093.66
2023-01-04T13:00:50.206Z,102096.38
2023-01-04T13:03:18.479Z,102089.28
2023-01-04T13:05:57.290Z,102083.09
2023-01-04T13:08:25.621Z,102087.50
2023-01-04T13:10:57.024Z,102073.16
2023-01-04T13:13:45.620Z,102075.72
2023-01-04T13:16:36.936Z,102072.19
2023-01-04T13:19:12.354Z,102072.25
2023-01-04T13:21:42.669Z,102072.19
2023-01-04T13:24:23.995Z,102062.44
2023-01-04T13:26:53.062Z,102069.59
2023-01-04T13:29:28.202Z,102067.78
2023-01-04T13:32:03.985Z,102059.00
2023-01-04T13:34:36.105Z,102060.78
2023-01-04T13:37:13.617Z,102061.66
2023-01-04T13:39:45.063Z,102055.53
2023-01-04T13:42:25.799Z,102060.09
2023-01-04T13:48:10.071Z,102059.19
2023-01-04T13:50:49.689Z,102054.72
2023-01-04T13:53:25.860Z,102045.91
2023-01-04T13:55:58.028Z,102051.19
2023-01-04T13:58:28.185Z,102056.50
2023-01-04T14:00:58.689Z,102053.78
2023-01-04T14:03:59.812Z,102065.25
2023-01-04T14:09:43.349Z,102049.41
2023-01-04T14:12:18.938Z,102059.28
2023-01-04T14:15:26.004Z,102064.69
2023-01-04T14:17:55.767Z,102066.63
2023-01-04T14:20:23.410Z,102059.28
2023-01-04T14:22:54.312Z,102050.47
2023-01-04T14:25:31.079Z,102057.59
2023-01-04T14:28:24.889Z,102056.72
2023-01-04T14:31:00.568Z,102043.38
2023-01-04T14:33:32.813Z,102047.84
2023-01-04T14:36:09.549Z,102041.69
2023-01-04T14:38:47.548Z,102036.38
2023-01-04T14:41:18.088Z,102035.38
2023-01-04T14:43:48.533Z,102017.84
2023-01-04T14:46:16.555Z,102018.66
2023-01-04T14:48:44.093Z,102027.50
2023-01-04T14:51:16.585Z,102032.97
2023-01-04T14:53:44.442Z,102038.31
2023-01-04T14:56:14.038Z,102029.41
2023-01-04T14:58:43.522Z,102014.41
2023-01-04T15:01:12.976Z,102020.72
2023-01-04T15:03:40.897Z,102041.94
2023-01-04T15:06:08.703Z,102035.78
2023-01-04T15:08:36.331Z,102043.75
2023-01-04T15:11:04.313Z,102034.13
2023-01-04T15:13:38.765Z,102017.34
2023-01-04T15:16:18.144Z,102029.56
2023-01-04T15:18:46.798Z,102030.59
2023-01-04T15:21:14.484Z,102027.00
2023-01-04T15:23:41.890Z,102023.53
2023-01-04T15:26:11.720Z,102020.81
2023-01-04T15:28:39.463Z,102024.38
2023-01-04T15:31:09.251Z,102019.91
2023-01-04T15:33:39.949Z,102016.34
2023-01-04T15:36:21.705Z,102013.69
2023-01-04T15:38:55.281Z,102011.09
2023-01-04T15:41:57.869Z,102004.84
2023-01-04T15:44:25.154Z,102016.41
2023-01-04T15:46:53.041Z,102007.63
2023-01-04T15:49:20.581Z,102011.19
2023-01-04T15:51:48.140Z,102020.00
2023-01-04T15:54:19.215Z,102006.72
2023-01-04T15:56:46.704Z,102004.03
2023-01-04T15:59:14.273Z,102005.81
2023-01-04T16:01:48.364Z,102006.78
2023-01-04T16:04:16.264Z,102007.69
2023-01-04T16:06:43.804Z,102013.88
2023-01-04T16:09:11.394Z,102004.94
2023-01-04T16:11:58.964Z,101998.81
2023-01-04T16:14:26.482Z,102010.34
2023-01-04T16:16:54.812Z,102005.06
2023-01-04T16:19:22.317Z,102010.28
2023-01-04T16:21:49.705Z,102009.50
2023-01-04T16:24:44.863Z,102005.84
2023-01-04T16:27:04.628Z,101991.59
2023-01-04T16:29:32.021Z,101998.72
2023-01-04T16:31:59.563Z,101994.28
2023-01-04T16:34:27.553Z,101979.13
2023-01-04T16:36:54.954Z,101972.91
2023-01-04T16:39:28.340Z,101978.31
2023-01-04T16:42:11.126Z,101984.50
2023-01-04T16:44:39.305Z,101988.81
2023-01-04T16:47:07.130Z,101985.28
2023-01-04T16:49:34.605Z,101976.44
2023-01-04T16:52:02.078Z,101981.69
2023-01-04T16:54:29.564Z,101983.44
2023-01-04T16:56:59.005Z,101973.63
2023-01-04T16:59:26.466Z,101985.25
2023-01-04T17:01:58.194Z,101977.13
2023-01-04T17:04:26.094Z,101990.47
2023-01-04T17:06:55.050Z,101984.28
2023-01-04T17:09:22.549Z,101985.25
2023-01-04T17:15:00.733Z,101986.13
2023-01-04T17:17:35.726Z,101982.56
2023-01-04T17:20:04.697Z,101978.19
2023-01-04T17:22:34.425Z,101978.25
2023-01-04T17:25:05.318Z,101972.91
2023-01-04T17:27:34.727Z,101975.56
2023-01-04T17:30:02.594Z,101983.50
2023-01-04T17:32:30.191Z,101974.59
2023-01-04T17:34:58.863Z,101970.19
2023-01-04T17:37:27.265Z,101953.41
2023-01-04T17:39:54.845Z,101956.91
2023-01-04T17:42:23.169Z,101956.78
2023-01-04T17:44:51.435Z,101964.97
2023-01-04T17:47:19.529Z,101949.94
2023-01-04T17:49:47.203Z,101951.53
2023-01-04T17:52:20.978Z,101955.16
2023-01-04T17:54:51.079Z,101969.31
2023-01-04T17:57:18.833Z,101964.88
2023-01-04T17:59:46.499Z,101954.22
2023-01-04T18:02:14.122Z,101949.78
2023-01-04T18:04:42.659Z,101955.09
2023-01-04T18:09:40.476Z,101951.66
2023-01-04T18:12:07.901Z,101952.59
2023-01-04T18:14:35.454Z,101945.44
2023-01-04T18:17:02.983Z,101946.41
2023-01-04T18:19:31.009Z,101936.69
2023-01-04T18:21:58.897Z,101944.63
2023-01-04T18:24:42.134Z,101944.56
2023-01-04T18:27:23.737Z,101933.06
2023-01-04T18:29:53.647Z,101941.94
2023-01-04T18:32:22.840Z,101936.59
2023-01-04T18:34:50.315Z,101941.00
2023-01-04T18:37:18.822Z,101932.13
2023-01-04T18:39:48.111Z,101941.94
2023-01-04T18:42:15.857Z,101940.22
2023-01-04T18:44:48.363Z,101943.69
2023-01-04T18:47:19.828Z,101950.84
2023-01-04T18:49:49.115Z,101933.91
2023-01-04T18:52:17.324Z,101941.94
2023-01-04T18:54:45.141Z,101949.84
2023-01-04T18:57:12.660Z,101949.94
2023-01-04T18:59:40.990Z,101956.91
2023-01-04T19:02:15.317Z,101951.53
2023-01-04T19:04:42.848Z,101948.19
2023-01-04T19:07:10.296Z,101958.88
2023-01-04T19:09:38.031Z,101956.22
2023-01-04T19:12:05.728Z,101942.91
2023-01-04T19:14:33.107Z,101948.31
2023-01-04T19:17:00.589Z,101949.19
2023-01-04T19:19:27.997Z,101950.09
2023-01-04T19:21:55.412Z,101948.22
2023-01-04T19:24:22.959Z,101947.41
2023-01-04T19:26:50.469Z,101941.13
2023-01-04T19:29:18.557Z,101936.81
2023-01-04T19:31:45.966Z,101919.13
2023-01-04T19:34:13.771Z,101914.66
2023-01-04T19:36:41.243Z,101905.78
2023-01-04T19:39:09.497Z,101919.97
2023-01-04T19:41:38.226Z,101927.00
2023-01-04T19:44:08.697Z,101926.09
2023-01-04T19:46:40.592Z,101920.66
2023-01-04T19:49:15.244Z,101925.06
2023-01-04T19:51:45.482Z,101917.22
2023-01-04T19:54:19.869Z,101919.06
2023-01-04T19:56:51.096Z,101914.66
2023-01-04T19:59:19.869Z,101912.03
2023-01-04T20:01:48.866Z,101915.56
2023-01-04T20:04:16.710Z,101904.03
2023-01-04T20:06:45.556Z,101905.84
2023-01-04T20:09:14.677Z,101909.38
2023-01-04T20:11:46.421Z,101907.59
2023-01-04T20:14:15.188Z,101922.66
2023-01-04T20:16:46.881Z,101914.63
2023-01-04T20:19:17.547Z,101906.66
2023-01-04T20:21:46.948Z,101919.00
2023-01-04T20:24:14.910Z,101921.69
2023-01-04T20:26:43.852Z,101918.25
2023-01-04T20:29:15.678Z,101921.81
2023-01-04T20:31:45.747Z,101920.06
2023-01-04T20:34:18.209Z,101929.78
2023-01-04T20:36:48.375Z,101927.91
2023-01-04T20:39:15.864Z,101926.22
2023-01-04T20:42:03.216Z,101919.16
2023-01-04T20:44:30.689Z,101920.03
2023-01-04T20:46:59.465Z,101926.19
2023-01-04T20:49:28.709Z,101922.69
2023-01-04T20:51:56.343Z,101926.22
2023-01-04T20:54:25.795Z,101917.34
2023-01-04T20:56:54.665Z,101920.00
2023-01-04T20:59:22.417Z,101912.91
2023-01-04T21:01:49.967Z,101903.25
2023-01-04T21:04:24.933Z,101904.13
2023-01-04T21:06:52.559Z,101889.97
2023-01-04T21:09:19.958Z,101886.41
2023-01-04T21:11:47.640Z,101883.69
2023-01-04T21:14:15.155Z,101884.59
2023-01-04T21:16:48.923Z,101882.81
2023-01-04T21:19:26.582Z,101876.66
2023-01-04T21:21:54.338Z,101880.16
2023-01-04T21:24:24.803Z,101881.97
2023-01-04T21:26:52.634Z,101900.53
2023-01-04T21:29:22.393Z,101890.84
2023-01-04T21:31:52.121Z,101894.38
2023-01-04T21:34:23.047Z,101884.66
2023-01-04T21:36:53.185Z,101886.44
2023-01-04T21:39:20.650Z,101875.78
2023-01-04T21:41:51.217Z,101875.81
2023-01-04T21:44:21.448Z,101871.41
2023-01-04T21:46:51.322Z,101868.78
2023-01-04T21:49:20.825Z,101885.56
2023-01-04T21:51:48.380Z,101870.44
2023-01-04T21:54:20.851Z,101879.38
2023-01-04T21:56:50.943Z,101872.38
2023-01-04T21:59:18.394Z,101885.66
2023-01-04T22:01:53.181Z,101883.84
2023-01-04T22:04:22.889Z,101879.41
2023-01-04T22:06:52.603Z,101872.38
2023-01-04T22:09:19.969Z,101859.88
2023-01-04T22:11:49.589Z,101867.88
2023-01-04T22:14:18.158Z,101874.13
2023-01-04T22:16:45.662Z,101868.78
2023-01-04T22:19:15.622Z,101873.16
2023-01-04T22:21:43.427Z,101864.28
2023-01-04T22:24:14.306Z,101866.94
2023-01-04T22:26:42.820Z,101860.78
2023-01-04T22:29:10.868Z,101866.06
2023-01-04T22:31:38.369Z,101859.72
2023-01-04T22:34:09.551Z,101865.22
2023-01-04T22:36:37.148Z,101861.69
2023-01-04T22:39:04.706Z,101859.88
2023-01-04T22:41:32.061Z,101859.09
2023-01-04T22:44:03.280Z,101855.59
2023-01-04T22:46:32.530Z,101855.50
2023-01-04T22:49:01.331Z,101849.34
2023-01-04T22:51:29.860Z,101845.75
2023-01-04T22:54:01.375Z,101839.56
2023-01-04T22:56:28.965Z,101842.28
2023-01-04T22:58:57.738Z,101841.41
2023-01-04T23:01:28.486Z,101835.16
2023-01-04T23:03:57.951Z,101830.69
2023-01-04T23:06:26.832Z,101829.00
2023-01-04T23:08:56.268Z,101826.31
2023-01-04T23:11:23.992Z,101827.22
2023-01-04T23:13:52.140Z,101820.13
2023-01-04T23:16:20.062Z,101826.31
2023-01-04T23:18:47.551Z,101841.44
2023-01-04T23:21:15.785Z,101831.66
2023-01-04T23:23:47.748Z,101829.00
2023-01-04T23:26:18.725Z,101823.66
2023-01-04T23:28:47.023Z,101833.47
2023-01-04T23:31:17.099Z,101824.56
2023-01-04T23:33:44.567Z,101808.50
2023-01-04T23:36:17.709Z,101808.53
2023-01-04T23:38:50.364Z,101804.06
2023-01-04T23:41:18.372Z,101796.13
2023-01-04T23:43:45.735Z,101798.78
2023-01-04T23:46:15.987Z,101797.94
2023-01-04T23:48:44.423Z,101789.00
2023-01-04T23:51:14.150Z,101790.84
2023-01-04T23:53:41.593Z,101781.09
2023-01-04T23:56:15.137Z,101775.06
2023-01-04T23:58:42.900Z,101772.38
